createdAt,value
2023-05-11T00:00:37.559Z,100572.70
2023-05-11T00:03:04.635Z,100575.14
2023-05-11T00:05:31.671Z,100575.64
2023-05-11T00:07:58.493Z,100575.78
2023-05-11T00:10:25.268Z,100576.00
2023-05-11T00:12:52.001Z,100574.98
2023-05-11T00:15:19.048Z,100577.27
2023-05-11T00:17:45.892Z,100572.79
2023-05-11T00:20:12.738Z,100575.61
2023-05-11T00:22:39.511Z,100571.28
2023-05-11T00:25:07.069Z,100570.95
2023-05-11T00:27:33.937Z,100571.68
2023-05-11T00:30:00.799Z,100571.35
2023-05-11T00:32:27.651Z,100573.82
2023-05-11T00:34:54.657Z,100569.82
2023-05-11T00:37:21.441Z,100570.90
2023-05-11T00:39:48.263Z,100570.94
2023-05-11T00:42:15.561Z,100570.52
2023-05-11T00:44:42.301Z,100568.48
2023-05-11T00:47:09.676Z,100569.45
2023-05-11T00:49:37.031Z,100571.92
2023-05-11T00:52:03.932Z,100570.60
2023-05-11T00:54:31.368Z,100568.94
2023-05-11T00:56:58.120Z,100570.61
2023-05-11T00:59:24.818Z,100572.12
2023-05-11T01:01:51.672Z,100574.13
2023-05-11T01:04:18.478Z,100572.73
2023-05-11T01:06:56.107Z,100570.86
2023-05-11T01:10:01.430Z,100572.81
2023-05-11T01:12:48.649Z,100574.69
2023-05-11T01:15:21.900Z,100572.71
2023-05-11T01:17:56.558Z,100571.20
2023-05-11T01:20:26.367Z,100568.27
2023-05-11T01:23:07.763Z,100569.34
2023-05-11T01:26:00.756Z,100576.78
2023-05-11T01:29:05.108Z,100578.70
2023-05-11T01:31:32.462Z,100575.17
2023-05-11T01:34:02.590Z,100578.34
2023-05-11T01:36:36.247Z,100578.88
2023-05-11T01:39:04.917Z,100579.90
2023-05-11T01:41:32.637Z,100583.56
2023-05-11T01:44:01.042Z,100579.63
2023-05-11T01:46:30.845Z,100579.00
2023-05-11T01:48:57.820Z,100578.05
2023-05-11T01:51:26.196Z,100578.56
2023-05-11T01:53:53.498Z,100576.77
2023-05-11T01:56:21.618Z,100574.84
2023-05-11T01:58:48.446Z,100579.60
2023-05-11T02:01:17.988Z,100580.88
2023-05-11T02:03:44.800Z,100578.20
2023-05-11T02:06:11.643Z,100579.02
2023-05-11T02:08:38.822Z,100585.10
2023-05-11T02:11:05.901Z,100584.55
2023-05-11T02:13:33.488Z,100586.73
2023-05-11T02:16:00.385Z,100586.13
2023-05-11T02:18:27.211Z,100588.30
2023-05-11T02:20:57.644Z,100586.91
2023-05-11T02:23:26.368Z,100587.45
2023-05-11T02:25:53.204Z,100589.19
2023-05-11T02:28:20.291Z,100592.20
2023-05-11T02:30:48.623Z,100591.30
2023-05-11T02:33:20.338Z,100592.89
2023-05-11T02:35:47.538Z,100591.77
2023-05-11T02:38:14.508Z,100594.30
2023-05-11T02:40:51.647Z,100598.84
2023-05-11T02:43:22.047Z,100599.39
2023-05-11T02:45:54.265Z,100598.81
2023-05-11T02:48:29.483Z,100601.09
2023-05-11T02:50:57.156Z,100601.92
2023-05-11T02:53:28.128Z,100602.67
2023-05-11T02:55:55.344Z,100605.23
2023-05-11T02:58:23.158Z,100604.36
2023-05-11T03:00:56.518Z,100604.37
2023-05-11T03:03:23.632Z,100603.77
2023-05-11T03:05:51.337Z,100604.84
2023-05-11T03:08:18.161Z,100607.77
2023-05-11T03:10:44.966Z,100613.95
2023-05-11T03:13:11.715Z,100613.70
2023-05-11T03:15:38.695Z,100615.06
2023-05-11T03:18:06.025Z,100613.98
2023-05-11T03:20:34.108Z,100617.46
2023-05-11T03:23:01.091Z,100620.38
2023-05-11T03:25:29.171Z,100621.79
2023-05-11T03:27:56.079Z,100618.61
2023-05-11T03:30:23.069Z,100622.89
2023-05-11T03:32:51.090Z,100620.76
2023-05-11T03:35:17.938Z,100622.91
2023-05-11T03:37:44.723Z,100620.05
2023-05-11T03:40:12.571Z,100622.05
2023-05-11T03:42:47.969Z,100623.23
2023-05-11T03:45:14.747Z,100629.84
2023-05-11T03:47:41.641Z,100630.73
2023-05-11T03:50:10.253Z,100631.58
2023-05-11T03:52:37.186Z,100633.55
2023-05-11T03:55:04.513Z,100632.48
2023-05-11T03:57:31.373Z,100636.02
2023-05-11T03:59:58.182Z,100641.27
2023-05-11T04:02:25.050Z,100646.36
2023-05-11T04:04:53.192Z,100647.75
2023-05-11T04:07:20.129Z,100650.58
2023-05-11T04:09:47.373Z,100650.91
2023-05-11T04:12:14.109Z,100652.05
2023-05-11T04:14:42.205Z,100654.19
2023-05-11T04:17:09.282Z,100655.45
2023-05-11T04:19:36.034Z,100655.84
2023-05-11T04:22:02.830Z,100656.36
2023-05-11T04:24:30.807Z,100663.20
2023-05-11T04:26:57.646Z,100660.84
2023-05-11T04:29:25.134Z,100665.56
2023-05-11T04:31:52.099Z,100664.06
2023-05-11T04:34:19.759Z,100669.48
2023-05-11T04:36:50.418Z,100670.66
2023-05-11T04:39:19.203Z,100671.85
2023-05-11T04:41:46.575Z,100676.17
2023-05-11T04:44:14.811Z,100681.55
2023-05-11T04:46:42.130Z,100677.85
2023-05-11T04:49:09.402Z,100670.70
2023-05-11T04:51:39.423Z,100667.10
2023-05-11T04:54:06.655Z,100668.31
2023-05-11T04:56:33.454Z,100669.98
2023-05-11T04:59:00.338Z,100673.44
2023-05-11T05:01:27.171Z,100673.45
2023-05-11T05:03:55.101Z,100669.09
2023-05-11T05:06:21.941Z,100669.94
2023-05-11T05:08:48.675Z,100676.14
2023-05-11T05:11:15.746Z,100674.33
2023-05-11T05:13:42.989Z,100673.73
2023-05-11T05:16:10.065Z,100678.17
2023-05-11T05:18:37.098Z,100681.58
2023-05-11T05:21:05.035Z,100682.30
2023-05-11T05:23:31.996Z,100682.11
2023-05-11T05:25:58.917Z,100680.94
2023-05-11T05:28:26.331Z,100682.41
2023-05-11T05:30:53.299Z,100676.83
2023-05-11T05:33:20.369Z,100679.17
2023-05-11T05:35:47.381Z,100678.50
2023-05-11T05:38:15.600Z,100680.28
2023-05-11T05:40:42.422Z,100683.79
2023-05-11T05:43:09.227Z,100681.05
2023-05-11T05:45:35.988Z,100681.42
2023-05-11T05:48:03.015Z,100677.90
2023-05-11T05:50:31.043Z,100681.45
2023-05-11T05:52:57.882Z,100681.67
2023-05-11T05:55:26.585Z,100680.55
2023-05-11T05:57:54.457Z,100680.19
2023-05-11T06:00:21.354Z,100678.15
2023-05-11T06:02:53.385Z,100680.61
2023-05-11T06:05:26.013Z,100679.80
2023-05-11T06:08:08.375Z,100680.91
2023-05-11T06:10:37.867Z,100680.27
2023-05-11T06:13:05.006Z,100679.83
2023-05-11T06:15:31.851Z,100680.14
2023-05-11T06:18:03.522Z,100678.23
2023-05-11T06:20:32.012Z,100675.98
2023-05-11T06:22:58.814Z,100675.66
2023-05-11T06:25:28.627Z,100674.67
2023-05-11T06:27:56.815Z,100671.58
2023-05-11T06:30:23.840Z,100672.05
2023-05-11T06:32:50.996Z,100670.23
2023-05-11T06:35:18.573Z,100675.08
2023-05-11T06:37:45.674Z,100671.70
2023-05-11T06:40:19.719Z,100672.08
2023-05-11T06:42:46.791Z,100674.75
2023-05-11T06:45:13.727Z,100674.05
2023-05-11T06:47:42.945Z,100675.48
2023-05-11T06:50:10.073Z,100674.18
2023-05-11T06:52:37.823Z,100673.58
2023-05-11T06:55:04.985Z,100674.21
2023-05-11T06:57:31.842Z,100674.71
2023-05-11T06:59:58.567Z,100670.71
2023-05-11T07:02:25.376Z,100672.81
2023-05-11T07:04:52.262Z,100670.41
2023-05-11T07:07:19.015Z,100674.56
2023-05-11T07:09:46.037Z,100673.52
2023-05-11T07:12:12.874Z,100670.19
2023-05-11T07:14:39.628Z,100668.80
2023-05-11T07:17:06.471Z,100671.15
2023-05-11T07:19:33.604Z,100671.45
2023-05-11T07:22:02.206Z,100672.73
2023-05-11T07:24:29.037Z,100676.49
2023-05-11T07:26:57.881Z,100673.48
2023-05-11T07:29:24.636Z,100671.77
2023-05-11T07:31:51.842Z,100671.10
2023-05-11T07:34:19.651Z,100669.02
2023-05-11T07:36:51.438Z,100670.04
2023-05-11T07:39:18.231Z,100667.36
2023-05-11T07:41:46.253Z,100665.30
2023-05-11T07:44:13.105Z,100667.76
2023-05-11T07:46:39.877Z,100668.35
2023-05-11T07:49:15.721Z,100666.62
2023-05-11T07:51:52.473Z,100666.73
2023-05-11T07:54:21.031Z,100660.98
2023-05-11T07:56:51.386Z,100659.59
2023-05-11T07:59:18.156Z,100655.47
2023-05-11T08:01:44.949Z,100648.69
2023-05-11T08:04:11.688Z,100646.91
2023-05-11T08:06:38.561Z,100640.20
2023-05-11T08:09:07.208Z,100643.25
2023-05-11T08:11:34.345Z,100642.79
2023-05-11T08:14:01.134Z,100633.60
2023-05-11T08:16:27.981Z,100639.25
2023-05-11T08:18:55.007Z,100640.45
2023-05-11T08:21:21.811Z,100639.59
2023-05-11T08:23:48.907Z,100639.02
2023-05-11T08:26:15.671Z,100639.61
2023-05-11T08:28:42.483Z,100644.03
2023-05-11T08:31:09.258Z,100641.42
2023-05-11T08:33:38.727Z,100641.79
2023-05-11T08:36:08.877Z,100635.87
2023-05-11T08:38:35.922Z,100633.19
2023-05-11T08:41:02.895Z,100627.91
2023-05-11T08:43:29.769Z,100626.14
2023-05-11T08:46:04.462Z,100626.30
2023-05-11T08:48:31.506Z,100626.38
2023-05-11T08:50:58.951Z,100626.27
2023-05-11T08:53:25.714Z,100632.37
2023-05-11T08:55:52.622Z,100631.52
2023-05-11T08:58:22.206Z,100635.52
2023-05-11T09:00:49.300Z,100638.09
2023-05-11T09:03:17.664Z,100637.66
2023-05-11T09:05:46.708Z,100638.86
2023-05-11T09:08:14.057Z,100638.73
2023-05-11T09:10:44.214Z,100638.91
2023-05-11T09:13:12.116Z,100637.58
2023-05-11T09:15:38.984Z,100637.34
2023-05-11T09:18:06.053Z,100637.05
2023-05-11T09:20:33.577Z,100635.19
2023-05-11T09:23:00.516Z,100636.20
2023-05-11T09:25:31.244Z,100631.94
2023-05-11T09:27:58.146Z,100630.70
2023-05-11T09:30:25.019Z,100628.40
2023-05-11T09:32:56.499Z,100625.33
2023-05-11T09:35:26.461Z,100620.24
2023-05-11T09:38:12.544Z,100617.85
2023-05-11T09:40:51.508Z,100619.04
2023-05-11T09:43:26.364Z,100616.98
2023-05-11T09:45:58.355Z,100609.59
2023-05-11T09:48:32.778Z,100610.38
2023-05-11T09:51:07.121Z,100602.90
2023-05-11T09:53:36.325Z,100599.08
2023-05-11T09:56:05.659Z,100597.35
2023-05-11T09:58:52.588Z,100595.10
2023-05-11T10:01:29.747Z,100583.32
2023-05-11T10:04:08.898Z,100589.11
2023-05-11T10:06:50.177Z,100589.27
2023-05-11T10:09:17.504Z,100584.56
2023-05-11T10:11:45.715Z,100580.11
2023-05-11T10:14:13.519Z,100578.16
2023-05-11T10:16:41.477Z,100574.36
2023-05-11T10:19:08.408Z,100576.53
2023-05-11T10:21:35.464Z,100570.02
2023-05-11T10:24:03.916Z,100572.05
2023-05-11T10:26:32.128Z,100561.25
2023-05-11T10:29:00.897Z,100565.59
2023-05-11T10:31:29.353Z,100567.13
2023-05-11T10:33:57.715Z,100564.43
2023-05-11T10:36:25.264Z,100561.22
2023-05-11T10:38:52.019Z,100559.52
2023-05-11T10:41:48.990Z,100564.38
2023-05-11T10:47:14.866Z,100551.72
2023-05-11T10:50:12.375Z,100544.61
2023-05-11T10:52:50.504Z,100545.48
2023-05-11T10:55:43.354Z,100554.40
2023-05-11T10:58:18.081Z,100549.48
2023-05-11T11:01:00.306Z,100547.64
2023-05-11T11:03:27.308Z,100542.73
2023-05-11T11:05:54.144Z,100544.03
2023-05-11T11:08:20.904Z,100544.70
2023-05-11T11:10:54.536Z,100548.91
2023-05-11T11:13:23.403Z,100545.34
2023-05-11T11:15:57.927Z,100540.87
2023-05-11T11:18:28.688Z,100536.57
2023-05-11T11:20:57.003Z,100536.47
2023-05-11T11:23:42.937Z,100535.31
2023-05-11T11:26:16.364Z,100532.36
2023-05-11T11:29:05.335Z,100528.30
2023-05-11T11:31:35.003Z,100526.48
2023-05-11T11:34:29.985Z,100524.13
2023-05-11T11:37:02.457Z,100524.39
2023-05-11T11:39:41.967Z,100522.22
2023-05-11T11:42:10.282Z,100513.75
2023-05-11T11:44:37.964Z,100511.00
2023-05-11T11:47:20.384Z,100511.32
2023-05-11T11:49:50.936Z,100507.27
2023-05-11T11:52:26.924Z,100511.90
2023-05-11T11:54:54.596Z,100513.63
2023-05-11T11:57:32.716Z,100507.93
2023-05-11T11:59:59.946Z,100506.63
2023-05-11T12:02:27.639Z,100501.92
2023-05-11T12:04:58.522Z,100502.04
2023-05-11T12:07:25.817Z,100499.66
2023-05-11T12:09:53.136Z,100502.02
2023-05-11T12:12:20.349Z,100494.36
2023-05-11T12:14:50.874Z,100495.25
2023-05-11T12:17:35.961Z,100494.20
2023-05-11T12:20:16.860Z,100490.90
2023-05-11T12:22:52.773Z,100485.63
2023-05-11T12:25:20.399Z,100486.55
2023-05-11T12:27:47.835Z,100482.38
2023-05-11T12:30:42.578Z,100480.79
2023-05-11T12:33:09.518Z,100477.95
2023-05-11T12:35:36.886Z,100477.85
2023-05-11T12:38:03.652Z,100479.84
2023-05-11T12:40:30.992Z,100480.08
2023-05-11T12:42:59.728Z,100480.52
2023-05-11T12:45:27.201Z,100478.50
2023-05-11T12:47:54.902Z,100477.82
2023-05-11T12:50:21.840Z,100483.36
2023-05-11T12:52:50.512Z,100482.73
2023-05-11T12:55:30.024Z,100481.70
2023-05-11T12:58:15.285Z,100479.70
2023-05-11T13:00:52.323Z,100481.89
2023-05-11T13:03:29.707Z,100481.17
2023-05-11T13:06:09.575Z,100479.30
2023-05-11T13:08:37.204Z,100483.09
2023-05-11T13:11:36.918Z,100482.88
2023-05-11T13:14:15.819Z,100482.35
2023-05-11T13:16:42.813Z,100481.40
2023-05-11T13:19:09.962Z,100476.59
2023-05-11T13:21:36.965Z,100478.06
2023-05-11T13:24:04.334Z,100476.08
2023-05-11T13:26:33.534Z,100473.14
2023-05-11T13:29:09.386Z,100473.29
2023-05-11T13:31:45.939Z,100472.49
2023-05-11T13:34:12.905Z,100469.13
2023-05-11T13:36:40.101Z,100471.03
2023-05-11T13:39:07.208Z,100471.77
2023-05-11T13:41:34.106Z,100475.64
2023-05-11T13:44:00.969Z,100469.61
2023-05-11T13:46:27.898Z,100466.37
2023-05-11T13:48:55.387Z,100467.04
2023-05-11T13:51:23.688Z,100466.73
2023-05-11T13:53:50.504Z,100464.48
2023-05-11T13:56:19.997Z,100460.05
2023-05-11T13:58:46.793Z,100461.18
2023-05-11T14:01:13.557Z,100458.10
2023-05-11T14:03:40.510Z,100458.23
2023-05-11T14:06:07.421Z,100455.23
2023-05-11T14:08:34.147Z,100455.40
2023-05-11T14:11:01.100Z,100452.58
2023-05-11T14:13:27.925Z,100452.48
2023-05-11T14:15:54.731Z,100455.54
2023-05-11T14:18:21.685Z,100449.41
2023-05-11T14:20:48.757Z,100454.36
2023-05-11T14:23:15.564Z,100449.77
2023-05-11T14:25:42.311Z,100454.92
2023-05-11T14:28:09.174Z,100454.30
2023-05-11T14:30:36.363Z,100454.36
2023-05-11T14:33:03.201Z,100453.23
2023-05-11T14:35:29.945Z,100454.28
2023-05-11T14:37:57.010Z,100447.11
2023-05-11T14:40:23.835Z,100447.38
2023-05-11T14:42:50.572Z,100446.84
2023-05-11T14:45:17.485Z,100445.39
2023-05-11T14:47:44.815Z,100443.20
2023-05-11T14:50:12.817Z,100442.36
2023-05-11T14:52:39.556Z,100441.64
2023-05-11T14:55:06.836Z,100439.50
2023-05-11T14:57:33.692Z,100442.01
2023-05-11T15:00:00.989Z,100441.55
2023-05-11T15:02:29.008Z,100435.91
2023-05-11T15:04:56.021Z,100434.86
2023-05-11T15:07:22.813Z,100435.66
2023-05-11T15:09:50.846Z,100435.35
2023-05-11T15:12:18.104Z,100443.13
2023-05-11T15:14:44.881Z,100438.69
2023-05-11T15:17:11.746Z,100439.24
2023-05-11T15:19:38.669Z,100436.77
2023-05-11T15:22:05.967Z,100436.42
2023-05-11T15:24:34.093Z,100436.79
2023-05-11T15:27:00.931Z,100435.62
2023-05-11T15:29:27.980Z,100432.23
2023-05-11T15:31:55.033Z,100432.42
2023-05-11T15:34:22.048Z,100432.31
2023-05-11T15:36:49.937Z,100429.92
2023-05-11T15:39:19.746Z,100433.84
2023-05-11T15:41:46.712Z,100435.71
2023-05-11T15:44:14.290Z,100435.40
2023-05-11T15:46:41.191Z,100439.36
2023-05-11T15:49:08.135Z,100430.91
2023-05-11T15:51:35.864Z,100429.30
2023-05-11T15:54:02.850Z,100427.11
2023-05-11T15:56:29.643Z,100425.59
2023-05-11T15:58:56.426Z,100428.09
2023-05-11T16:01:23.186Z,100430.29
2023-05-11T16:03:50.017Z,100430.25
2023-05-11T16:06:16.811Z,100431.69
2023-05-11T16:08:44.948Z,100430.27
2023-05-11T16:11:11.757Z,100433.76
2023-05-11T16:13:38.620Z,100433.66
2023-05-11T16:16:06.531Z,100428.44
2023-05-11T16:18:33.283Z,100428.89
2023-05-11T16:21:00.014Z,100428.59
2023-05-11T16:23:26.884Z,100430.52
2023-05-11T16:25:53.711Z,100432.54
2023-05-11T16:28:20.566Z,100432.85
2023-05-11T16:30:47.655Z,100435.66
2023-05-11T16:33:14.632Z,100435.42
2023-05-11T16:35:41.488Z,100435.20
2023-05-11T16:38:17.891Z,100437.21
2023-05-11T16:40:44.838Z,100439.96
2023-05-11T16:43:11.654Z,100440.61
2023-05-11T16:45:38.473Z,100441.55
2023-05-11T16:48:05.902Z,100443.23
2023-05-11T16:50:32.894Z,100447.39
2023-05-11T16:53:00.881Z,100443.52
2023-05-11T16:55:28.175Z,100443.73
2023-05-11T16:57:55.235Z,100447.45
2023-05-11T17:00:22.262Z,100448.04
2023-05-11T17:02:49.378Z,100449.38
2023-05-11T17:05:18.033Z,100451.63
2023-05-11T17:07:46.389Z,100448.81
2023-05-11T17:10:13.276Z,100449.98
2023-05-11T17:12:40.502Z,100450.95
2023-05-11T17:15:10.349Z,100443.84
2023-05-11T17:17:38.206Z,100446.81
2023-05-11T17:20:07.734Z,100445.82
2023-05-11T17:22:35.018Z,100445.69
2023-05-11T17:25:03.959Z,100447.55
2023-05-11T17:27:35.656Z,100448.25
2023-05-11T17:30:02.442Z,100452.01
2023-05-11T17:32:29.690Z,100454.67
2023-05-11T17:34:57.026Z,100451.80
2023-05-11T17:37:31.657Z,100455.57
2023-05-11T17:40:00.168Z,100459.00
2023-05-11T17:42:27.256Z,100461.75
2023-05-11T17:44:55.316Z,100467.56
2023-05-11T17:47:22.552Z,100468.53
2023-05-11T17:49:49.677Z,100473.36
2023-05-11T17:52:17.202Z,100478.91
2023-05-11T17:54:44.173Z,100478.92
2023-05-11T17:57:11.000Z,100482.17
2023-05-11T17:59:37.811Z,100483.91
2023-05-11T18:02:04.912Z,100486.63
2023-05-11T18:04:31.831Z,100489.72
2023-05-11T18:06:59.161Z,100486.45
2023-05-11T18:09:25.964Z,100489.63
2023-05-11T18:11:53.033Z,100491.23
2023-05-11T18:14:19.961Z,100491.00
2023-05-11T18:16:49.742Z,100493.88
2023-05-11T18:19:18.267Z,100494.27
2023-05-11T18:21:45.571Z,100498.83
2023-05-11T18:24:14.700Z,100504.69
2023-05-11T18:26:41.788Z,100500.56
2023-05-11T18:29:08.632Z,100502.44
2023-05-11T18:31:35.709Z,100502.84
2023-05-11T18:34:03.681Z,100505.17
2023-05-11T18:36:30.510Z,100507.21
2023-05-11T18:38:57.579Z,100506.81
2023-05-11T18:41:24.404Z,100509.01
2023-05-11T18:43:52.849Z,100510.99
2023-05-11T18:46:21.575Z,100509.50
2023-05-11T18:48:52.865Z,100510.33
2023-05-11T18:51:22.551Z,100510.37
2023-05-11T18:53:49.968Z,100512.17
2023-05-11T18:56:17.716Z,100512.36
2023-05-11T18:58:45.610Z,100509.23
2023-05-11T19:01:12.758Z,100508.01
2023-05-11T19:03:39.631Z,100514.10
2023-05-11T19:06:07.745Z,100511.70
2023-05-11T19:08:34.701Z,100513.96
2023-05-11T19:11:08.446Z,100514.48
2023-05-11T19:13:35.384Z,100512.83
2023-05-11T19:16:03.476Z,100507.52
2023-05-11T19:18:30.927Z,100508.40
2023-05-11T19:20:58.000Z,100507.45
2023-05-11T19:23:24.790Z,100511.30
2023-05-11T19:25:52.049Z,100508.54
2023-05-11T19:28:18.997Z,100507.37
2023-05-11T19:30:45.790Z,100509.55
2023-05-11T19:33:12.764Z,100505.92
2023-05-11T19:35:40.592Z,100505.33
2023-05-11T19:38:07.423Z,100503.94
2023-05-11T19:40:45.941Z,100509.73
2023-05-11T19:43:13.715Z,100510.52
2023-05-11T19:45:43.572Z,100510.30
2023-05-11T19:48:10.470Z,100513.20
2023-05-11T19:50:37.237Z,100508.35
2023-05-11T19:53:04.145Z,100513.34
2023-05-11T19:55:31.225Z,100511.21
2023-05-11T19:57:58.051Z,100508.44
2023-05-11T20:00:25.857Z,100508.02
2023-05-11T20:02:53.173Z,100499.99
2023-05-11T20:05:20.184Z,100506.42
2023-05-11T20:07:47.819Z,100509.07
2023-05-11T20:10:14.572Z,100507.40
2023-05-11T20:12:41.534Z,100508.05
2023-05-11T20:15:09.828Z,100507.58
2023-05-11T20:17:36.755Z,100506.70
2023-05-11T20:20:04.063Z,100508.25
2023-05-11T20:22:31.476Z,100508.77
2023-05-11T20:24:58.216Z,100507.77
2023-05-11T20:27:25.128Z,100506.61
2023-05-11T20:29:52.009Z,100504.28
2023-05-11T20:32:18.810Z,100504.84
2023-05-11T20:34:45.599Z,100499.35
2023-05-11T20:37:12.932Z,100503.06
2023-05-11T20:39:39.842Z,100501.54
2023-05-11T20:42:06.693Z,100506.63
2023-05-11T20:44:34.253Z,100507.33
2023-05-11T20:47:01.059Z,100509.12
2023-05-11T20:49:38.304Z,100513.64
2023-05-11T20:52:07.465Z,100510.20
2023-05-11T20:54:35.818Z,100513.66
2023-05-11T20:57:04.045Z,100510.58
2023-05-11T21:02:02.281Z,100511.17
2023-05-11T21:04:31.491Z,100518.48
2023-05-11T21:06:58.440Z,100516.87
2023-05-11T21:09:25.556Z,100519.75
2023-05-11T21:11:52.473Z,100521.02
2023-05-11T21:14:19.272Z,100519.52
2023-05-11T21:16:46.240Z,100519.70
2023-05-11T21:19:13.030Z,100520.68
2023-05-11T21:21:39.819Z,100522.21
2023-05-11T21:24:06.779Z,100518.70
2023-05-11T21:26:33.585Z,100521.90
2023-05-11T21:29:00.584Z,100522.05
2023-05-11T21:31:27.504Z,100522.80
2023-05-11T21:33:54.514Z,100525.96
2023-05-11T21:36:22.364Z,100521.93
2023-05-11T21:38:49.244Z,100524.55
2023-05-11T21:41:16.986Z,100524.33
2023-05-11T21:43:44.302Z,100523.40
2023-05-11T21:46:11.106Z,100527.73
2023-05-11T21:48:37.948Z,100529.16
2023-05-11T21:51:04.988Z,100530.13
2023-05-11T21:53:31.808Z,100532.18
2023-05-11T21:55:58.616Z,100531.59
2023-05-11T21:58:26.522Z,100535.10
2023-05-11T22:00:55.123Z,100535.39
2023-05-11T22:03:22.434Z,100534.33
2023-05-11T22:05:49.529Z,100536.84
2023-05-11T22:08:16.474Z,100534.80
2023-05-11T22:10:43.361Z,100536.48
2023-05-11T22:13:10.437Z,100535.45
2023-05-11T22:15:37.270Z,100537.65
2023-05-11T22:18:05.134Z,100535.09
2023-05-11T22:20:32.170Z,100537.13
2023-05-11T22:22:59.578Z,100538.39
2023-05-11T22:25:26.656Z,100537.34
2023-05-11T22:27:53.648Z,100535.77
2023-05-11T22:30:20.832Z,100535.79
2023-05-11T22:32:47.948Z,100535.94
2023-05-11T22:35:14.906Z,100533.98
2023-05-11T22:37:41.786Z,100534.83
2023-05-11T22:40:10.177Z,100531.67
2023-05-11T22:42:37.729Z,100532.98
2023-05-11T22:45:05.201Z,100534.81
2023-05-11T22:47:32.075Z,100533.33
2023-05-11T22:49:58.988Z,100533.08
2023-05-11T22:52:25.858Z,100532.26
2023-05-11T22:54:57.975Z,100533.58
2023-05-11T22:57:28.012Z,100532.56
2023-05-11T22:59:54.792Z,100534.66
2023-05-11T23:04:40.515Z,100535.41
2023-05-11T23:07:07.955Z,100535.36
2023-05-11T23:09:35.073Z,100537.84
2023-05-11T23:12:01.933Z,100537.69
2023-05-11T23:14:28.924Z,100535.59
2023-05-11T23:16:55.666Z,100530.02
2023-05-11T23:19:22.511Z,100529.59
2023-05-11T23:21:49.396Z,100529.59
2023-05-11T23:24:16.222Z,100528.45
2023-05-11T23:26:43.138Z,100526.46
2023-05-11T23:29:10.328Z,100529.45
2023-05-11T23:31:38.086Z,100529.30
2023-05-11T23:34:05.058Z,100531.20
2023-05-11T23:36:32.356Z,100525.35
2023-05-11T23:38:59.541Z,100527.13
2023-05-11T23:41:26.697Z,100522.99
2023-05-11T23:43:53.423Z,100525.55
2023-05-11T23:46:20.274Z,100525.48
2023-05-11T23:48:47.803Z,100523.84
2023-05-11T23:51:15.422Z,100523.54
2023-05-11T23:53:42.385Z,100530.28
2023-05-11T23:56:09.184Z,100527.38
2023-05-11T23:58:36.144Z,100533.20
